Time;durP1;ratioP1;P1;durP2;ratioP2;P2;SDS_P1;SDS_P2;PMS_P1;PMS_P2;Temp;Humidity;BMP_temperature;BMP_pressure;BME280_temperature;BME280_humidity;BME280_pressure;Samples;Min_cycle;Max_cycle;Signal;HPM_P1;HPM_P2
2022/08/29 00:01:11;;;;;;;16.08;14.13;;;17.80;86.00;;;16.70;100.00;96215.06;5001726;28;20099;-70
2022/08/29 00:03:37;;;;;;;15.15;13.63;;;17.80;86.30;;;16.67;100.00;96210.19;5008951;28;20409;-70
2022/08/29 00:06:03;;;;;;;17.25;13.90;;;17.70;86.20;;;16.65;100.00;96207.75;5020119;28;20489;-69
2022/08/29 00:08:29;;;;;;;15.52;13.13;;;17.80;86.10;;;16.65;100.00;96205.09;5022655;28;20095;-70
2022/08/29 00:10:55;;;;;;;14.57;13.10;;;17.80;86.10;;;16.63;100.00;96214.31;5011917;28;20124;-70
2022/08/29 00:13:21;;;;;;;17.13;12.70;;;17.70;86.00;;;16.61;100.00;96211.88;5027636;28;20865;-69
2022/08/29 00:15:47;;;;;;;14.70;13.25;;;17.70;86.00;;;16.59;100.00;96207.84;5011716;28;20034;-70
2022/08/29 00:18:13;;;;;;;14.85;12.90;;;17.70;86.00;;;16.58;100.00;96211.53;5022510;28;20069;-69
2022/08/29 00:20:39;;;;;;;15.88;13.00;;;17.70;85.80;;;16.56;100.00;96205.63;5019189;28;20097;-70
2022/08/29 00:23:05;;;;;;;14.55;12.90;;;17.70;85.90;;;16.54;100.00;96205.84;4996124;28;20556;-70
2022/08/29 00:25:31;;;;;;;14.82;13.23;;;17.70;85.80;;;16.52;100.00;96214.03;5027397;28;20052;-70
2022/08/29 00:27:57;;;;;;;14.30;12.80;;;17.70;85.70;;;16.50;100.00;96205.47;5007297;28;20301;-71
2022/08/29 00:30:23;;;;;;;14.20;12.65;;;17.70;85.60;;;16.47;100.00;96210.41;5023646;28;20493;-70
2022/08/29 00:32:49;;;;;;;15.73;13.35;;;17.60;85.60;;;16.43;100.00;96215.38;5008576;28;20040;-70
2022/08/29 00:35:25;;;;;;;15.50;13.55;;;17.60;85.80;;;16.42;100.00;96213.75;5027732;28;20036;-70
2022/08/29 00:37:51;;;;;;;16.27;13.15;;;17.60;85.90;;;16.39;100.00;96214.19;5019191;28;20087;-70
2022/08/29 00:40:23;;;;;;;14.85;12.90;;;17.60;85.90;;;16.39;100.00;96216.84;5028201;28;20037;-70
2022/08/29 00:42:49;;;;;;;13.70;12.25;;;17.50;85.70;;;16.37;100.00;96218.91;5024094;28;20030;-71
2022/08/29 00:45:16;;;;;;;15.15;13.63;;;17.50;85.80;;;16.34;100.00;96222.00;5042120;28;20096;-69
2022/08/29 00:47:48;;;;;;;32.45;16.90;;;17.50;86.30;;;16.33;100.00;96228.34;5010544;28;20030;-70
2022/08/29 00:50:39;;;;;;;44.47;18.10;;;17.50;86.60;;;16.31;100.00;96219.81;5010327;28;20041;-70
2022/08/29 00:53:07;;;;;;;20.38;16.38;;;17.50;86.80;;;16.28;100.00;96217.56;5008174;28;20061;-70
2022/08/29 00:55:34;;;;;;;24.20;16.88;;;17.50;87.10;;;16.27;100.00;96221.25;4995032;28;20521;-70
2022/08/29 00:58:11;;;;;;;18.20;15.77;;;17.50;87.20;;;16.27;100.00;96225.75;5004442;28;20215;-70
2022/08/29 01:00:37;;;;;;;16.98;15.27;;;17.40;87.20;;;16.23;100.00;96220.09;4972940;28;20451;-70
2022/08/29 01:03:06;;;;;;;16.52;14.93;;;17.40;87.50;;;16.21;100.00;96227.47;5025387;28;20092;-69
2022/08/29 01:05:32;;;;;;;26.25;15.50;;;17.40;87.30;;;16.22;100.00;96221.94;5013556;28;20026;-70
2022/08/29 01:07:58;;;;;;;15.98;14.38;;;17.50;87.20;;;16.21;100.00;96222.16;4972530;28;20030;-70
2022/08/29 01:13:08;;;;;;;16.45;14.80;;;17.40;87.10;;;16.17;100.00;96216.47;5010262;28;20048;-69
2022/08/29 01:15:34;;;;;;;16.75;15.02;;;17.40;87.10;;;16.18;100.00;96219.94;5025535;28;20037;-70
2022/08/29 01:18:00;;;;;;;17.02;15.32;;;17.40;87.10;;;16.17;100.00;96220.97;5026243;28;20034;-69
2022/08/29 01:20:39;;;;;;;17.40;15.63;;;17.40;87.20;;;16.17;100.00;96215.66;5000773;28;20438;-69
2022/08/29 01:23:43;;;;;;;17.73;15.85;;;17.40;87.10;;;16.18;100.00;96222.59;5017209;28;20030;-70
2022/08/29 01:26:10;;;;;;;31.98;16.45;;;17.40;87.20;;;16.16;100.00;96219.34;5016644;28;20037;-70
2022/08/29 01:28:45;;;;;;;18.35;16.45;;;17.40;87.20;;;16.14;100.00;96216.13;5004770;28;20041;-70
2022/08/29 01:31:20;;;;;;;18.73;16.73;;;17.40;87.50;;;16.15;100.00;96215.06;5028024;28;20041;-70
2022/08/29 01:33:55;;;;;;;18.35;16.40;;;17.40;87.30;;;16.15;100.00;96212.44;5007878;28;20029;-70
2022/08/29 01:36:31;;;;;;;43.67;16.25;;;17.30;87.40;;;16.12;100.00;96210.22;5013791;28;20048;-70
2022/08/29 01:38:57;;;;;;;30.13;17.10;;;17.30;87.40;;;16.11;100.00;96214.72;5015757;28;20538;-70
2022/08/29 01:41:23;;;;;;;17.58;15.68;;;17.30;87.50;;;16.08;100.00;96212.50;5001449;28;20045;-70
2022/08/29 01:43:52;;;;;;;26.77;15.82;;;17.30;87.40;;;16.07;100.00;96202.94;5008083;28;20064;-70
2022/08/29 01:46:27;;;;;;;21.42;15.75;;;17.30;87.40;;;16.08;100.00;96209.03;5006445;28;20041;-70
2022/08/29 01:48:53;;;;;;;22.58;14.60;;;17.20;87.40;;;16.04;100.00;96202.53;4987654;28;20413;-70
2022/08/29 01:51:19;;;;;;;15.30;13.88;;;17.20;87.40;;;16.02;100.00;96205.41;4975518;28;20042;-70
2022/08/29 01:53:45;;;;;;;15.43;13.93;;;17.20;87.40;;;16.02;100.00;96202.75;5019078;28;20406;-70
2022/08/29 01:56:20;;;;;;;16.15;14.55;;;17.20;87.30;;;16.01;100.00;96201.13;5022550;28;20034;-70
2022/08/29 01:58:47;;;;;;;17.67;14.20;;;17.20;87.30;;;16.00;100.00;96201.34;5014062;28;20070;-70
2022/08/29 02:01:14;;;;;;;15.95;14.43;;;17.20;87.30;;;15.99;100.00;96197.06;4993935;28;20088;-70
2022/08/29 02:03:40;;;;;;;14.95;13.45;;;17.10;87.40;;;15.97;100.00;96199.13;4995854;28;20531;-70
2022/08/29 02:06:08;;;;;;;16.42;14.57;;;17.10;87.30;;;15.95;100.00;96196.72;5021047;28;20050;-69
2022/08/29 02:08:38;;;;;;;15.30;13.88;;;17.20;87.40;;;15.93;100.00;96188.97;4991214;28;20030;-69
2022/08/29 02:11:08;;;;;;;15.55;13.98;;;17.10;87.30;;;15.93;100.00;96199.59;5022932;28;20081;-70
2022/08/29 02:13:38;;;;;;;15.05;13.27;;;17.10;87.10;;;15.90;100.00;96194.72;5013934;28;20033;-70
2022/08/29 02:16:04;;;;;;;14.85;13.38;;;17.10;87.00;;;15.89;100.00;96198.41;4982381;28;20405;-70
2022/08/29 02:18:32;;;;;;;14.75;13.30;;;17.10;86.90;;;15.88;100.00;96204.75;5003473;28;20140;-70
2022/08/29 02:20:58;;;;;;;14.80;13.13;;;17.10;86.80;;;15.87;100.00;96200.47;5007938;28;20036;-70
2022/08/29 02:23:24;;;;;;;14.73;13.43;;;17.10;86.60;;;15.86;100.00;96198.84;5008004;28;20026;-70
2022/08/29 02:25:50;;;;;;;15.43;14.00;;;17.10;86.70;;;15.86;100.00;96204.16;4996464;28;20037;-70
2022/08/29 02:28:17;;;;;;;16.55;13.48;;;17.10;86.70;;;15.85;100.00;96205.19;4998770;28;20115;-71
2022/08/29 02:30:45;;;;;;;15.30;13.73;;;17.10;86.80;;;15.85;100.00;96204.38;5027991;28;20033;-69
2022/08/29 02:33:12;;;;;;;16.70;15.15;;;17.10;86.90;;;15.84;100.00;96205.38;4992484;28;20084;-70
2022/08/29 02:35:38;;;;;;;16.50;14.80;;;17.10;86.80;;;15.82;100.00;96202.13;5027858;28;20029;-70
2022/08/29 02:38:04;;;;;;;17.58;15.38;;;17.00;86.90;;;15.80;100.00;96205.00;5023455;28;20029;-69
2022/08/29 02:40:30;;;;;;;16.58;14.93;;;17.00;86.90;;;15.78;100.00;96206.25;5027148;28;20046;-69
2022/08/29 02:42:56;;;;;;;17.20;15.40;;;17.00;87.00;;;15.77;100.00;96202.00;5001167;28;20030;-70
2022/08/29 02:45:22;;;;;;;16.10;14.55;;;16.90;87.00;;;15.75;100.00;96204.88;5010666;28;20061;-70
2022/08/29 02:47:48;;;;;;;17.02;15.30;;;17.00;86.90;;;15.74;100.00;96200.59;5009345;28;20121;-70
2022/08/29 02:50:14;;;;;;;16.33;14.63;;;16.90;86.90;;;15.73;100.00;96192.84;4989139;28;20117;-70
2022/08/29 02:52:40;;;;;;;16.00;14.30;;;16.90;86.70;;;15.71;100.00;96206.34;5005137;28;20034;-69
2022/08/29 02:55:10;;;;;;;15.35;13.75;;;16.90;86.70;;;15.70;100.00;96204.72;5023985;28;20034;-70
2022/08/29 02:57:35;;;;;;;15.25;13.75;;;16.90;86.60;;;15.68;100.00;96196.16;5023754;28;20034;-70
2022/08/29 03:00:02;;;;;;;15.57;13.95;;;16.90;86.50;;;15.67;100.00;96199.03;5016930;28;20128;-70
2022/08/29 03:02:28;;;;;;;15.57;13.88;;;16.90;86.40;;;15.64;100.00;96194.97;5025446;28;20685;-70
2022/08/29 03:04:53;;;;;;;16.92;15.05;;;16.80;86.50;;;15.62;100.00;96210.31;5024693;28;20038;-69
2022/08/29 03:07:19;;;;;;;21.17;15.63;;;16.80;86.70;;;15.60;100.00;96209.69;5005167;28;20065;-69
2022/08/29 03:09:45;;;;;;;16.67;15.00;;;16.80;86.80;;;15.59;100.00;96203.56;5008029;28;20044;-70
2022/08/29 03:12:11;;;;;;;21.02;14.32;;;16.80;86.90;;;15.58;100.00;96211.72;5029386;28;20124;-70
2022/08/29 03:14:36;;;;;;;15.93;14.20;;;16.80;86.80;;;15.57;100.00;96204.78;5003121;28;20120;-69
2022/08/29 03:17:02;;;;;;;18.77;14.05;;;16.80;86.80;;;15.54;100.00;96211.34;5006463;28;20721;-72
2022/08/29 03:19:28;;;;;;;14.57;12.88;;;16.80;86.80;;;15.53;100.00;96208.91;4995479;28;20402;-70
2022/08/29 03:21:54;;;;;;;25.58;13.55;;;16.80;86.80;;;15.52;100.00;96212.59;5014458;28;20441;-70
2022/08/29 03:24:20;;;;;;;17.40;13.95;;;16.70;86.80;;;15.51;100.00;96210.97;5027888;28;20040;-70
2022/08/29 03:26:45;;;;;;;17.35;13.52;;;16.70;86.90;;;15.50;100.00;96209.34;5021572;28;20029;-69
2022/08/29 03:29:11;;;;;;;39.85;13.95;;;16.70;86.80;;;15.48;100.00;96211.41;5008815;28;20072;-70
2022/08/29 03:31:37;;;;;;;13.20;12.00;;;16.70;86.80;;;15.46;100.00;96211.63;5005947;28;20179;-70
2022/08/29 03:34:03;;;;;;;32.40;13.60;;;16.70;87.00;;;15.45;100.00;96214.50;5008326;28;20037;-70
2022/08/29 03:36:31;;;;;;;15.43;13.60;;;16.70;87.10;;;15.44;100.00;96216.31;5004946;28;21382;-70
2022/08/29 03:38:56;;;;;;;48.55;14.02;;;16.70;87.20;;;15.40;100.00;96216.97;5007918;28;20140;-69
2022/08/29 03:41:26;;;;;;;20.75;12.82;;;16.60;87.60;;;15.38;100.00;96213.72;5014362;28;20481;-70
2022/08/29 03:43:54;;;;;;;23.17;12.07;;;16.60;87.60;;;15.37;100.00;96220.03;5014120;28;20113;-70
2022/08/29 03:46:20;;;;;;;14.07;11.52;;;16.60;87.80;;;15.36;100.00;96223.72;5013016;28;20468;-69
2022/08/29 03:48:47;;;;;;;17.48;10.75;;;16.60;87.60;;;15.34;100.00;96221.28;5031326;28;20107;-70
2022/08/29 03:51:13;;;;;;;17.17;10.00;;;16.60;87.40;;;15.33;100.00;96223.13;5031539;28;20560;-70
2022/08/29 03:53:39;;;;;;;12.02;10.80;;;16.60;87.40;;;15.31;100.00;96222.53;5028437;28;20042;-70
2022/08/29 03:56:06;;;;;;;16.02;9.98;;;16.60;87.30;;;15.29;100.00;96221.94;5011048;28;20036;-70
2022/08/29 03:58:32;;;;;;;15.60;9.38;;;16.50;87.10;;;15.28;100.00;96222.97;5029953;28;20037;-72
2022/08/29 04:00:58;;;;;;;14.70;9.52;;;16.50;87.00;;;15.26;100.00;96230.31;5031060;28;20029;-70
2022/08/29 04:03:24;;;;;;;11.57;9.77;;;16.50;87.00;;;15.24;100.00;96232.38;5015053;28;20038;-70
2022/08/29 04:05:50;;;;;;;10.15;9.25;;;16.50;86.90;;;15.23;100.00;96233.41;5014989;28;20041;-69
2022/08/29 04:08:15;;;;;;;10.45;9.48;;;16.50;87.00;;;15.21;100.00;96224.06;5030576;28;20124;-70
2022/08/29 04:10:41;;;;;;;11.10;10.00;;;16.50;87.00;;;15.21;100.00;96226.69;5006064;28;20082;-70
2022/08/29 04:13:07;;;;;;;10.57;9.57;;;16.50;86.80;;;15.20;100.00;96231.19;5025561;28;20089;-69
2022/08/29 04:15:33;;;;;;;27.55;9.50;;;16.40;87.00;;;15.15;100.00;96233.66;5010927;28;20080;-69
2022/08/29 04:18:00;;;;;;;25.35;10.00;;;16.40;86.90;;;15.13;100.00;96235.69;5004941;28;20350;-70
2022/08/29 04:20:33;;;;;;;9.70;8.77;;;16.40;87.00;;;15.11;100.00;96243.06;4978793;28;20069;-70
2022/08/29 04:22:59;;;;;;;10.10;8.80;;;16.40;87.10;;;15.08;100.00;96240.03;4988924;28;20044;-70
2022/08/29 04:25:26;;;;;;;9.00;8.20;;;16.30;87.00;;;15.09;100.00;96239.81;5003166;28;20034;-70
2022/08/29 04:27:52;;;;;;;29.05;8.77;;;16.40;86.90;;;15.08;100.00;96232.88;5017203;28;20033;-69
2022/08/29 04:30:21;;;;;;;9.63;8.82;;;16.40;86.70;;;15.06;100.00;96240.25;5026929;28;20480;-70
2022/08/29 04:32:47;;;;;;;9.45;8.65;;;16.30;86.90;;;15.05;100.00;96238.63;5024374;28;20026;-70
2022/08/29 04:35:13;;;;;;;9.50;8.73;;;16.30;87.00;;;15.04;100.00;96237.00;5026462;28;20133;-69
2022/08/29 04:37:40;;;;;;;9.02;8.32;;;16.30;87.00;;;15.04;100.00;96234.34;5021513;28;20034;-70
2022/08/29 04:40:08;;;;;;;9.60;8.60;;;16.40;87.00;;;15.03;100.00;96230.06;5009977;28;20057;-69
2022/08/29 04:42:37;;;;;;;9.23;8.35;;;16.30;86.90;;;15.03;100.00;96240.66;5012245;28;20037;-69
2022/08/29 04:45:05;;;;;;;8.20;7.50;;;16.30;86.80;;;15.02;100.00;96236.41;5009013;28;20103;-70
2022/08/29 04:47:31;;;;;;;8.23;7.38;;;16.40;86.80;;;15.04;100.00;96252.88;5019998;28;20038;-70
2022/08/29 04:49:56;;;;;;;8.05;7.28;;;16.30;86.80;;;15.05;100.00;96243.91;5021204;28;20060;-71
2022/08/29 04:52:22;;;;;;;7.78;7.18;;;16.40;86.80;;;15.05;100.00;96246.56;5022622;28;20116;-69
2022/08/29 04:54:49;;;;;;;8.82;8.02;;;16.40;86.70;;;15.06;100.00;96245.53;4989926;28;20030;-70
2022/08/29 04:57:15;;;;;;;18.33;7.57;;;16.40;86.70;;;15.06;100.00;96256.13;5005888;28;20041;-69
2022/08/29 04:59:41;;;;;;;8.00;7.20;;;16.40;86.50;;;15.07;100.00;96255.09;5026983;28;20045;-71
2022/08/29 05:02:07;;;;;;;12.10;7.85;;;16.40;86.70;;;15.09;100.00;96250.41;5025659;28;20056;-69
2022/08/29 05:04:32;;;;;;;13.50;7.40;;;16.50;86.50;;;15.10;100.00;96254.69;5017704;28;20405;-69
2022/08/29 05:06:59;;;;;;;7.93;7.22;;;16.50;86.40;;;15.11;100.00;96253.66;5022945;28;20030;-70
2022/08/29 05:09:24;;;;;;;8.20;7.40;;;16.50;86.50;;;15.12;100.00;96251.81;5009185;28;20030;-70
2022/08/29 05:11:50;;;;;;;7.82;7.05;;;16.50;86.40;;;15.15;100.00;96254.84;5026484;28;20045;-70
2022/08/29 05:14:16;;;;;;;9.05;8.15;;;16.60;86.30;;;15.18;100.00;96256.28;5004968;28;21610;-69
2022/08/29 05:16:41;;;;;;;9.88;8.98;;;16.60;86.30;;;15.20;100.00;96256.88;5010333;28;20493;-70
2022/08/29 05:19:07;;;;;;;10.88;9.77;;;16.60;86.40;;;15.25;100.00;96254.38;5005834;28;20529;-69
2022/08/29 05:21:36;;;;;;;26.52;11.57;;;16.60;86.40;;;15.28;100.00;96254.78;5041960;28;20041;-70
2022/08/29 05:24:04;;;;;;;13.35;11.43;;;16.70;86.40;;;15.32;100.00;96255.97;5034427;28;20029;-71
2022/08/29 05:26:35;;;;;;;13.15;11.63;;;16.80;86.60;;;15.36;100.00;96261.63;5023342;28;20102;-67
2022/08/29 05:29:01;;;;;;;24.33;10.88;;;16.70;86.50;;;15.39;100.00;96260.41;4992528;28;20057;-70
2022/08/29 05:31:27;;;;;;;42.45;9.65;;;16.80;86.50;;;15.42;100.00;96268.75;4998305;28;20041;-70
2022/08/29 05:33:53;;;;;;;13.35;10.05;;;16.80;86.30;;;15.44;100.00;96269.34;4990430;28;20332;-73
2022/08/29 05:36:19;;;;;;;63.97;8.73;;;16.90;86.40;;;15.49;100.00;96271.34;5001421;28;20040;-71
2022/08/29 05:38:45;;;;;;;9.90;7.35;;;16.90;85.90;;;15.53;100.00;96273.34;5023684;28;20025;-67
2022/08/29 05:41:11;;;;;;;10.23;8.02;;;17.10;86.20;;;15.59;100.00;96277.00;5025990;28;20056;-66
2022/08/29 05:43:37;;;;;;;8.45;7.65;;;17.10;85.90;;;15.64;100.00;96282.50;5022802;28;20041;-68
2022/08/29 05:46:05;;;;;;;7.78;6.97;;;17.20;85.80;;;15.69;100.00;96281.84;4974696;28;20764;-72
2022/08/29 05:48:32;;;;;;;7.88;7.18;;;17.20;85.70;;;15.76;100.00;96282.59;4996560;28;20120;-69
2022/08/29 05:50:57;;;;;;;24.08;7.90;;;17.30;85.50;;;15.80;100.00;96278.47;5015267;28;20037;-70
2022/08/29 05:53:23;;;;;;;9.05;7.78;;;17.30;85.10;;;15.85;100.00;96282.13;4993223;28;20603;-69
2022/08/29 05:55:49;;;;;;;8.80;8.00;;;17.40;85.30;;;15.89;100.00;96283.28;4987954;28;20573;-69
2022/08/29 05:58:15;;;;;;;13.13;7.85;;;17.60;85.40;;;15.96;100.00;96282.41;5005877;28;20047;-69
2022/08/29 06:00:42;;;;;;;17.35;9.30;;;17.60;84.90;;;16.02;100.00;96282.34;5025764;28;20465;-69
2022/08/29 06:03:08;;;;;;;36.20;8.90;;;17.60;84.90;;;16.08;100.00;96286.81;5006923;28;20042;-70
2022/08/29 06:05:34;;;;;;;13.48;8.90;;;17.70;84.50;;;16.14;100.00;96287.75;5024189;28;20033;-70
2022/08/29 06:08:00;;;;;;;12.45;9.68;;;17.70;84.30;;;16.18;100.00;96291.59;5023327;28;20736;-69
2022/08/29 06:10:26;;;;;;;9.45;8.30;;;17.80;84.50;;;16.26;100.00;96295.81;5008023;28;20038;-70
2022/08/29 06:12:52;;;;;;;8.98;7.72;;;17.90;84.50;;;16.30;100.00;96292.50;4997750;28;20033;-70
2022/08/29 06:15:18;;;;;;;8.57;7.57;;;17.90;84.00;;;16.38;100.00;96294.06;5022322;28;20026;-69
2022/08/29 06:17:43;;;;;;;8.57;7.78;;;18.10;84.10;;;16.45;100.00;96287.63;5002453;28;20541;-69
2022/08/29 06:20:09;;;;;;;10.80;8.38;;;18.10;83.70;;;16.53;100.00;96294.53;5012046;28;20453;-69
2022/08/29 06:22:36;;;;;;;9.93;8.05;;;18.20;83.30;;;16.61;100.00;96296.06;4981113;28;20532;-70
2022/08/29 06:25:03;;;;;;;9.55;8.57;;;18.30;83.30;;;16.67;100.00;96300.50;4988460;28;20030;-70
2022/08/29 06:27:28;;;;;;;10.70;9.68;;;18.30;82.90;;;16.70;100.00;96302.72;5009985;28;20109;-69
2022/08/29 06:29:54;;;;;;;12.43;10.85;;;18.30;83.20;;;16.76;100.00;96293.88;4997344;28;20469;-69
2022/08/29 06:32:20;;;;;;;12.57;11.27;;;18.40;83.10;;;16.82;100.00;96299.09;5022240;28;20057;-69
2022/08/29 06:34:45;;;;;;;13.52;11.40;;;18.50;82.90;;;16.90;100.00;96297.97;5026122;28;20111;-69
2022/08/29 06:37:11;;;;;;;16.27;12.43;;;18.60;82.60;;;16.93;100.00;96302.03;5024349;28;20060;-70
2022/08/29 06:39:37;;;;;;;12.95;11.30;;;18.60;82.00;;;16.97;100.00;96305.84;5008830;28;20458;-70
2022/08/29 06:42:03;;;;;;;15.40;12.73;;;18.60;82.30;;;17.02;100.00;96308.69;5025102;28;20033;-70
2022/08/29 06:44:30;;;;;;;14.23;11.75;;;18.70;81.90;;;17.10;100.00;96311.00;4987861;28;20226;-70
2022/08/29 06:46:56;;;;;;;14.98;11.60;;;18.80;82.10;;;17.20;100.00;96305.16;5026098;28;20123;-72
2022/08/29 06:49:21;;;;;;;13.95;12.27;;;19.10;81.80;;;17.31;100.00;96301.72;5024351;28;20275;-73
2022/08/29 06:51:49;;;;;;;12.98;11.57;;;19.10;81.40;;;17.39;100.00;96314.69;5023260;28;20061;-69
2022/08/29 06:54:15;;;;;;;12.63;11.32;;;19.10;80.70;;;17.47;100.00;96306.41;5005459;28;20386;-69
2022/08/29 06:56:41;;;;;;;12.75;11.48;;;19.30;80.30;;;17.56;100.00;96313.03;4972514;28;20409;-67
2022/08/29 06:59:07;;;;;;;12.98;11.60;;;19.50;80.60;;;17.65;100.00;96311.69;4989328;28;20077;-67
2022/08/29 07:01:32;;;;;;;12.57;11.35;;;19.50;80.10;;;17.75;100.00;96314.59;5017355;28;20030;-67
2022/08/29 07:03:58;;;;;;;14.25;12.80;;;19.80;79.60;;;17.85;100.00;96319.34;5026187;28;20413;-67
2022/08/29 07:06:24;;;;;;;12.90;11.57;;;19.80;79.00;;;17.99;100.00;96314.66;5022442;28;20068;-68
2022/08/29 07:08:50;;;;;;;12.10;10.60;;;20.10;78.30;;;18.13;100.00;96315.25;5025862;28;20048;-67
2022/08/29 07:11:16;;;;;;;14.10;10.70;;;20.10;78.20;;;18.25;100.00;96303.53;5007164;28;20119;-72
2022/08/29 07:13:42;;;;;;;12.27;10.98;;;20.50;77.60;;;18.40;100.00;96316.41;5025174;28;20038;-73
2022/08/29 07:16:13;;;;;;;14.82;11.85;;;20.60;77.70;;;18.52;100.00;96319.03;5014665;28;20091;-68
2022/08/29 07:18:39;;;;;;;15.18;12.45;;;20.70;77.10;;;18.65;100.00;96319.63;5003737;28;20573;-73
2022/08/29 07:21:09;;;;;;;14.73;12.23;;;20.90;76.30;;;18.78;100.00;96315.88;4977210;28;20124;-68
2022/08/29 07:23:35;;;;;;;16.02;13.65;;;21.00;75.90;;;18.88;100.00;96321.44;5025078;28;20040;-68
2022/08/29 07:26:22;;;;;;;14.48;12.05;;;21.00;76.20;;;18.96;100.00;96315.72;5008297;28;20073;-69
2022/08/29 07:28:49;;;;;;;13.43;12.10;;;21.00;76.00;;;19.04;100.00;96321.75;4996809;28;20100;-72
2022/08/29 07:31:15;;;;;;;15.55;12.27;;;21.10;76.80;;;19.16;100.00;96314.53;5024861;28;20545;-69
2022/08/29 07:33:41;;;;;;;13.90;12.50;;;21.40;76.20;;;19.30;100.00;96309.72;5025155;28;20033;-73
2022/08/29 07:36:07;;;;;;;19.85;12.60;;;21.60;74.70;;;19.45;100.00;96313.47;5006666;28;20033;-72
2022/08/29 07:38:33;;;;;;;13.93;12.48;;;21.80;75.10;;;19.60;100.00;96315.63;5006043;28;20044;-71
2022/08/29 07:41:05;;;;;;;14.40;12.77;;;22.00;73.90;;;19.76;100.00;96319.38;5022825;28;20497;-72
2022/08/29 07:43:30;;;;;;;15.50;12.68;;;22.10;73.40;;;19.87;100.00;96323.81;5011764;28;20108;-70
2022/08/29 07:45:56;;;;;;;16.95;13.40;;;22.10;73.50;;;19.96;100.00;96326.91;5027844;28;20117;-70
2022/08/29 07:48:23;;;;;;;15.00;13.40;;;22.10;72.50;;;20.00;100.00;96331.53;5027271;28;20033;-71
2022/08/29 07:50:49;;;;;;;14.38;12.88;;;22.10;73.40;;;20.06;100.00;96325.22;5006833;28;20042;-70
2022/08/29 07:53:15;;;;;;;15.65;13.32;;;22.10;73.80;;;20.08;100.00;96333.78;5016146;28;20116;-70
2022/08/29 07:55:40;;;;;;;14.82;13.25;;;22.00;73.10;;;20.10;100.00;96331.69;5020955;28;20037;-71
2022/08/29 07:58:06;;;;;;;15.18;13.57;;;22.10;73.70;;;20.14;100.00;96332.84;5008267;28;20038;-69
2022/08/29 08:00:32;;;;;;;16.73;14.93;;;22.10;73.40;;;20.15;100.00;96336.31;5004462;28;20119;-69
2022/08/29 08:02:59;;;;;;;15.73;14.13;;;22.10;73.40;;;20.14;100.00;96337.34;4947374;28;20109;-70
2022/08/29 08:05:24;;;;;;;16.65;14.85;;;22.10;73.50;;;20.15;100.00;96334.44;5010131;28;20026;-70
2022/08/29 08:07:50;;;;;;;16.17;13.95;;;22.10;73.00;;;20.22;100.00;96333.47;4998458;28;20034;-71
2022/08/29 08:10:18;;;;;;;16.35;14.75;;;22.30;73.10;;;20.29;100.00;96334.91;4988101;28;20034;-70
2022/08/29 08:12:44;;;;;;;20.20;15.65;;;22.60;72.30;;;20.38;100.00;96341.47;4977945;28;20528;-70
2022/08/29 08:15:09;;;;;;;18.00;15.75;;;22.60;71.60;;;20.50;100.00;96341.41;4970819;28;20042;-70
2022/08/29 08:17:35;;;;;;;16.17;14.50;;;22.70;71.60;;;20.62;100.00;96349.31;4975623;28;20109;-70
2022/08/29 08:20:05;;;;;;;18.75;15.52;;;22.80;71.90;;;20.71;100.00;96348.66;4998524;28;20405;-71
2022/08/29 08:22:31;;;;;;;18.38;16.10;;;22.90;72.30;;;20.80;100.00;96352.50;4994651;28;20041;-69
2022/08/29 08:24:56;;;;;;;19.15;16.40;;;23.10;71.30;;;20.92;100.00;96348.91;4985395;28;20029;-70
2022/08/29 08:27:22;;;;;;;16.02;14.32;;;23.40;70.30;;;21.05;100.00;96349.38;5031075;28;20030;-69
2022/08/29 08:29:48;;;;;;;18.02;14.98;;;23.50;69.90;;;21.15;100.00;96348.69;5030628;28;20037;-69
2022/08/29 08:32:14;;;;;;;16.92;15.18;;;23.60;69.40;;;21.25;100.00;96354.16;5012552;28;20470;-69
2022/08/29 08:34:40;;;;;;;17.70;15.20;;;23.60;69.10;;;21.30;100.00;96356.91;5002933;28;20037;-70
2022/08/29 08:37:07;;;;;;;16.55;14.85;;;23.50;69.20;;;21.38;100.00;96359.13;5002749;28;20061;-70
2022/08/29 08:39:33;;;;;;;17.83;16.00;;;23.60;70.20;;;21.50;100.00;96351.00;5030499;28;20080;-70
2022/08/29 08:42:27;;;;;;;18.15;15.75;;;23.80;69.60;;;21.65;100.00;96358.34;5030748;28;20114;-69
2022/08/29 08:45:21;;;;;;;16.50;14.70;;;24.10;68.50;;;21.90;100.00;96361.25;5002402;28;20124;-69
2022/08/29 08:48:09;;;;;;;16.73;14.98;;;24.60;67.30;;;22.14;100.00;96347.56;5029569;28;20032;-69
2022/08/29 08:50:55;;;;;;;16.50;14.82;;;24.90;65.50;;;22.38;100.00;96362.22;5030261;28;20041;-70
2022/08/29 08:53:49;;;;;;;16.25;14.63;;;25.20;65.20;;;22.63;100.00;96361.59;5030953;28;20053;-69
2022/08/29 08:56:45;;;;;;;16.10;13.73;;;25.60;63.60;;;22.81;100.00;96361.19;5012184;28;20033;-72
2022/08/29 08:59:30;;;;;;;16.92;14.75;;;25.60;64.50;;;23.00;100.00;96358.88;5014694;28;20049;-70
2022/08/29 09:02:35;;;;;;;17.88;14.25;;;25.70;62.90;;;23.13;99.72;96352.25;5029382;28;20033;-70
2022/08/29 09:05:28;;;;;;;15.13;13.40;;;25.70;62.90;;;23.27;100.00;96352.53;5029886;28;20040;-71
2022/08/29 09:08:09;;;;;;;15.93;12.85;;;25.90;62.60;;;23.61;100.00;96348.41;5013813;28;20049;-70
2022/08/29 09:11:15;;;;;;;14.13;12.63;;;26.60;61.90;;;24.08;100.00;96342.81;5030454;28;20501;-69
2022/08/29 09:14:10;;;;;;;14.00;11.27;;;27.50;61.40;;;24.66;95.20;96347.88;5037047;28;20037;-69
2022/08/29 09:16:41;;;;;;;12.48;11.27;;;28.00;57.50;;;24.97;93.96;96344.06;5030044;28;20030;-70
2022/08/29 09:19:09;;;;;;;13.50;11.65;;;28.20;55.80;;;25.26;95.14;96346.13;5025452;28;20045;-71
2022/08/29 09:21:47;;;;;;;13.15;11.50;;;28.30;55.60;;;25.50;89.31;96352.47;5003319;28;20135;-70
2022/08/29 09:24:31;;;;;;;12.35;11.00;;;28.50;55.20;;;25.79;89.15;96354.47;5010126;28;20560;-73
2022/08/29 09:26:57;;;;;;;14.25;11.20;;;28.90;54.70;;;26.16;91.46;96348.56;5009974;28;20038;-69
2022/08/29 09:29:26;;;;;;;11.38;10.10;;;29.30;53.90;;;26.49;87.07;96344.28;4972704;28;20045;-69
2022/08/29 09:32:15;;;;;;;11.43;10.18;;;29.60;52.20;;;26.82;81.07;96346.09;5004355;28;20033;-69
2022/08/29 09:34:45;;;;;;;13.18;10.88;;;30.00;50.80;;;27.17;83.79;96340.63;5027565;28;20500;-71
2022/08/29 09:37:27;;;;;;;11.13;9.45;;;30.40;50.70;;;27.57;78.96;96339.28;5010698;28;20733;-70
2022/08/29 09:40:03;;;;;;;10.85;9.30;;;30.70;49.70;;;27.88;80.06;96340.50;5024143;28;20045;-69
2022/08/29 09:42:34;;;;;;;9.77;8.85;;;31.00;49.10;;;28.21;78.20;96335.91;4999657;28;20104;-69
2022/08/29 09:45:25;;;;;;;11.52;10.43;;;31.40;48.10;;;28.51;73.41;96331.91;5025292;28;20496;-69
2022/08/29 09:48:16;;;;;;;12.57;11.27;;;31.60;47.00;;;28.72;71.80;96337.75;4997922;28;20033;-69
2022/08/29 09:50:42;;;;;;;13.32;9.75;;;31.70;46.00;;;28.93;76.79;96344.44;5034705;28;20049;-69
2022/08/29 09:53:08;;;;;;;11.60;10.40;;;32.10;45.30;;;29.17;74.52;96333.38;5042691;28;20036;-69
2022/08/29 09:55:43;;;;;;;11.52;9.98;;;32.50;44.20;;;29.43;69.32;96339.09;5028106;28;20034;-69
2022/08/29 09:58:14;;;;;;;10.93;9.77;;;32.70;43.90;;;29.66;67.87;96333.78;5007381;28;20045;-68
2022/08/29 10:00:43;;;;;;;10.80;9.55;;;32.90;43.80;;;29.88;71.92;96348.19;5027119;28;20033;-68
2022/08/29 10:03:20;;;;;;;10.00;8.90;;;33.40;44.10;;;30.16;65.53;96331.81;5001756;28;20128;-69
2022/08/29 10:05:46;;;;;;;10.63;9.52;;;33.80;42.10;;;30.45;70.18;96340.31;4985851;28;20034;-69
2022/08/29 10:08:34;;;;;;;11.20;8.40;;;34.20;41.50;;;30.81;66.07;96331.28;5006630;28;20038;-69
2022/08/29 10:11:16;;;;;;;9.57;8.38;;;34.80;41.60;;;31.06;65.26;96333.28;4999977;28;20112;-70
2022/08/29 10:13:54;;;;;;;9.60;7.93;;;35.20;39.50;;;31.36;60.39;96318.03;4994328;28;20087;-70